Time;durP1;ratioP1;P1;durP2;ratioP2;P2;SDS_P1;SDS_P2;PMS_P1;PMS_P2;Temp;Humidity;BMP_temperature;BMP_pressure;BME280_temperature;BME280_humidity;BME280_pressure;Samples;Min_cycle;Max_cycle;Signal;HPM_P1;HPM_P2
2021/06/11 00:01:44;;;;;;;7.12;5.30;;;;;;;16.95;80.65;100186.76;1783394;80;20845;-78
2021/06/11 00:04:10;;;;;;;5.78;4.90;;;;;;;16.95;80.61;100185.44;1783789;80;20955;-78
2021/06/11 00:06:37;;;;;;;11.75;5.45;;;;;;;16.93;80.71;100183.91;1783783;80;21401;-78
2021/06/11 00:09:06;;;;;;;10.48;5.92;;;;;;;16.80;80.88;100182.89;1783510;80;20869;-78
2021/06/11 00:11:34;;;;;;;6.60;5.65;;;;;;;16.80;80.88;100182.89;1783755;80;21120;-77
2021/06/11 00:14:01;;;;;;;12.63;4.80;;;;;;;16.67;81.55;100188.95;1783567;80;20971;-78
2021/06/11 00:16:27;;;;;;;7.60;5.60;;;;;;;16.67;81.55;100188.95;1783457;80;20999;-77
2021/06/11 00:18:55;;;;;;;11.08;5.60;;;;;;;16.68;81.80;100185.34;1783470;80;20920;-76
2021/06/11 00:21:21;;;;;;;9.43;5.85;;;;;;;16.70;81.88;100192.16;1783925;80;21485;-76
2021/06/11 00:23:50;;;;;;;8.38;6.42;;;;;;;16.72;81.83;100196.83;1783518;80;21134;-75
2021/06/11 00:26:18;;;;;;;5.30;4.87;;;;;;;16.73;82.13;100186.56;1783457;80;20912;-76
2021/06/11 00:28:44;;;;;;;10.30;7.05;;;;;;;16.75;81.88;100187.77;1783843;80;20900;-76
2021/06/11 00:31:12;;;;;;;6.10;5.50;;;;;;;16.72;81.93;100184.08;1783671;80;20955;-78
2021/06/11 00:33:39;;;;;;;10.60;7.53;;;;;;;16.73;82.23;100189.71;1783988;80;21346;-79
2021/06/11 00:36:07;;;;;;;9.60;7.53;;;;;;;16.77;81.84;100191.93;1783738;80;22066;-77
2021/06/11 00:38:34;;;;;;;8.18;5.83;;;;;;;16.77;81.84;100191.93;1783476;80;20995;-77
2021/06/11 00:41:02;;;;;;;7.50;5.17;;;;;;;16.77;82.38;100183.98;1783907;80;20935;-77
2021/06/11 00:43:29;;;;;;;7.37;6.58;;;;;;;16.76;81.88;100188.09;1783896;80;20943;-78
2021/06/11 00:45:56;;;;;;;9.18;6.08;;;;;;;16.71;81.84;100186.37;1783550;80;20892;-78
2021/06/11 00:48:23;;;;;;;6.47;5.83;;;;;;;16.71;81.84;100186.37;1783647;80;21193;-77
2021/06/11 00:50:50;;;;;;;8.43;6.22;;;;;;;16.70;81.74;100184.71;1783761;80;21453;-79
2021/06/11 00:53:17;;;;;;;10.63;7.08;;;;;;;16.66;82.02;100188.12;1783489;80;20877;-78
2021/06/11 00:55:45;;;;;;;7.50;6.80;;;;;;;16.64;82.17;100183.95;1783546;80;20873;-78
2021/06/11 00:58:13;;;;;;;8.30;5.45;;;;;;;16.63;82.27;100192.85;1783640;80;21454;-78
2021/06/11 01:00:40;;;;;;;10.48;6.47;;;;;;;16.63;82.23;100195.50;1783892;80;21113;-79
2021/06/11 01:03:07;;;;;;;9.10;6.85;;;;;;;16.62;82.16;100195.17;1783630;80;20845;-79
2021/06/11 01:05:34;;;;;;;11.03;6.40;;;;;;;16.62;82.16;100195.17;1783507;80;21330;-77
2021/06/11 01:08:01;;;;;;;13.03;7.03;;;;;;;16.65;81.55;100189.58;1783446;80;20916;-78
2021/06/11 01:10:29;;;;;;;12.63;7.37;;;;;;;16.65;81.55;100189.58;1783646;80;21330;-77
2021/06/11 01:12:56;;;;;;;17.35;12.30;;;;;;;16.66;81.81;100185.47;1783643;80;21131;-78
2021/06/11 01:15:22;;;;;;;19.02;14.43;;;;;;;16.67;81.75;100188.95;1783773;80;20917;-78
2021/06/11 01:17:52;;;;;;;10.85;6.58;;;;;;;16.67;81.72;100181.84;1783621;80;20908;-80
2021/06/11 01:20:19;;;;;;;12.80;7.10;;;;;;;16.68;81.69;100185.34;1783757;80;20940;-80
2021/06/11 01:23:27;;;;;;;7.85;6.28;;;;;;;16.68;81.60;100176.91;1783586;80;20865;-80
2021/06/11 01:26:09;;;;;;;11.85;8.50;;;;;;;16.69;81.57;100169.79;1783577;80;21161;-79
2021/06/11 01:28:36;;;;;;;7.08;6.47;;;;;;;16.67;81.16;100173.06;1783529;80;21385;-80
2021/06/11 01:31:03;;;;;;;9.25;6.97;;;;;;;16.67;81.16;100173.06;1779005;80;21346;-80
2021/06/11 01:33:30;;;;;;;10.25;6.30;;;;;;;16.58;81.71;100184.88;1783557;80;21058;-79
2021/06/11 01:36:10;;;;;;;7.87;6.62;;;;;;;16.58;81.71;100184.88;1783804;80;21419;-78
2021/06/11 01:38:40;;;;;;;8.68;6.70;;;;;;;16.56;82.03;100186.83;1719252;83;21162;-79
2021/06/11 01:41:09;;;;;;;7.30;6.55;;;;;;;16.57;82.02;100188.48;1719845;83;20916;-78
2021/06/11 01:43:36;;;;;;;7.08;5.75;;;;;;;16.57;81.85;100192.45;1695946;83;20975;-79
2021/06/11 01:46:03;;;;;;;10.32;7.58;;;;;;;16.58;81.58;100195.92;1719421;83;20948;-79
2021/06/11 01:48:31;;;;;;;7.37;6.15;;;;;;;16.57;81.50;100207.51;1719640;83;21454;-77
2021/06/11 01:50:58;;;;;;;9.83;5.85;;;;;;;16.57;81.50;100207.51;1719492;83;21992;-78
2021/06/11 01:53:25;;;;;;;7.83;6.78;;;;;;;16.57;81.62;100204.36;1719665;83;20869;-78
2021/06/11 01:55:51;;;;;;;12.85;6.33;;;;;;;16.59;81.65;100209.53;1695619;83;21578;-79
2021/06/11 01:58:18;;;;;;;13.62;6.10;;;;;;;16.61;81.70;100206.72;1695833;83;21026;-79
2021/06/11 02:00:46;;;;;;;7.42;6.65;;;;;;;16.54;82.35;100205.98;1719529;83;21393;-78
2021/06/11 02:03:16;;;;;;;8.88;6.78;;;;;;;16.54;82.35;100205.98;1719583;83;21029;-78
2021/06/11 02:05:42;;;;;;;10.65;7.42;;;;;;;16.51;82.81;100209.39;1696158;83;20939;-79
2021/06/11 02:08:09;;;;;;;7.90;6.33;;;;;;;16.51;82.81;100209.39;1719715;83;21587;-78
2021/06/11 02:10:36;;;;;;;7.75;7.00;;;;;;;16.53;82.51;100209.59;1719604;83;20900;-79
2021/06/11 02:13:03;;;;;;;8.88;7.78;;;;;;;16.52;82.59;100215.88;1719967;83;21465;-77
2021/06/11 02:15:30;;;;;;;10.45;7.95;;;;;;;16.53;82.60;100216.20;1746676;80;21801;-77
2021/06/11 02:17:58;;;;;;;10.05;7.60;;;;;;;16.54;82.79;100216.57;1783794;80;20975;-77
2021/06/11 02:20:25;;;;;;;8.93;8.00;;;;;;;16.54;82.79;100216.57;1783836;80;20900;-77
2021/06/11 02:22:52;;;;;;;12.80;10.60;;;;;;;16.55;83.04;100218.23;1755994;80;20971;-77
2021/06/11 02:25:23;;;;;;;13.60;8.08;;;;;;;16.60;83.31;100215.66;1755714;80;21465;-76
2021/06/11 02:27:50;;;;;;;15.18;7.08;;;;;;;16.71;83.29;100215.00;1783736;80;21136;-78
2021/06/11 02:30:19;;;;;;;8.45;6.97;;;;;;;16.71;83.29;100215.00;1783745;80;20877;-77
2021/06/11 02:32:46;;;;;;;7.83;6.97;;;;;;;16.85;82.64;100207.16;1783863;80;20841;-77
2021/06/11 02:35:16;;;;;;;7.03;6.35;;;;;;;16.85;82.64;100207.16;1783210;80;20935;-77
2021/06/11 02:37:44;;;;;;;12.15;7.53;;;;;;;16.91;82.67;100209.70;1774714;80;20905;-78
2021/06/11 02:40:12;;;;;;;9.83;7.10;;;;;;;16.96;82.56;100203.02;1775293;80;21162;-79
2021/06/11 02:42:39;;;;;;;9.10;6.67;;;;;;;17.01;82.37;100206.55;1775217;80;21484;-78
2021/06/11 02:45:11;;;;;;;8.13;6.58;;;;;;;17.01;82.37;100206.55;1775332;80;21433;-78
2021/06/11 02:47:45;;;;;;;8.08;6.78;;;;;;;17.05;82.31;100207.08;1775191;80;20975;-78
2021/06/11 02:50:15;;;;;;;7.72;6.92;;;;;;;17.09;82.15;100210.63;1775539;80;20909;-79
2021/06/11 02:52:50;;;;;;;9.48;7.62;;;;;;;17.14;82.17;100216.34;1775216;80;21148;-78
2021/06/11 02:55:17;;;;;;;9.73;7.42;;;;;;;17.14;82.17;100216.34;1775680;80;20872;-78
2021/06/11 02:57:57;;;;;;;8.30;6.72;;;;;;;17.18;81.90;100214.22;1775174;80;21446;-77
2021/06/11 03:00:25;;;;;;;11.12;7.20;;;;;;;17.22;81.78;100217.43;1775596;80;20896;-77
2021/06/11 03:02:56;;;;;;;9.63;8.23;;;;;;;17.27;81.73;100219.97;1775206;80;20964;-78
2021/06/11 03:05:23;;;;;;;11.68;8.90;;;;;;;17.33;81.83;100215.42;1775573;80;21070;-77
2021/06/11 03:07:54;;;;;;;12.10;9.00;;;;;;;17.40;81.82;100210.37;1775191;80;21481;-77
2021/06/11 03:10:29;;;;;;;14.35;9.15;;;;;;;17.51;81.72;100217.30;1775586;80;20971;-75
2021/06/11 03:12:59;;;;;;;12.73;8.05;;;;;;;17.61;81.60;100222.08;1774748;80;21358;-76
2021/06/11 03:15:31;;;;;;;11.08;8.03;;;;;;;17.72;81.45;100217.05;1775080;80;21314;-76
2021/06/11 03:18:01;;;;;;;9.03;8.03;;;;;;;17.84;81.33;100220.37;1775265;80;21755;-76
2021/06/11 03:20:33;;;;;;;10.95;9.13;;;;;;;17.93;81.32;100223.46;1775399;80;20963;-76
2021/06/11 03:23:06;;;;;;;12.88;7.55;;;;;;;17.99;81.18;100218.89;1775258;80;20861;-77
2021/06/11 03:25:55;;;;;;;10.82;8.53;;;;;;;18.09;81.10;100224.12;1779374;80;20928;-77
2021/06/11 03:28:43;;;;;;;11.65;9.08;;;;;;;18.18;81.19;100222.71;1775188;80;20845;-78
2021/06/11 03:31:21;;;;;;;13.05;9.08;;;;;;;18.32;81.00;100227.15;1775382;80;21063;-79
2021/06/11 03:33:52;;;;;;;11.93;8.85;;;;;;;18.47;80.84;100226.95;1774177;80;21050;-75
2021/06/11 03:36:24;;;;;;;11.35;8.98;;;;;;;18.62;80.36;100224.59;1775391;80;20916;-77
2021/06/11 03:38:56;;;;;;;9.18;8.25;;;;;;;18.74;79.86;100220.72;1774137;80;20928;-76
2021/06/11 03:41:23;;;;;;;8.95;8.03;;;;;;;18.86;79.44;100223.16;1775156;80;20920;-77
2021/06/11 03:43:51;;;;;;;10.82;9.68;;;;;;;19.00;78.83;100230.55;1775202;80;21124;-79
2021/06/11 03:46:17;;;;;;;9.83;8.80;;;;;;;19.13;78.40;100227.48;1775397;80;20932;-76
2021/06/11 03:48:46;;;;;;;11.93;8.60;;;;;;;19.26;77.96;100226.05;1775239;80;20920;-76
2021/06/11 03:51:13;;;;;;;9.68;8.65;;;;;;;19.39;77.45;100234.93;1775617;80;20901;-83
2021/06/11 03:53:41;;;;;;;9.30;8.28;;;;;;;19.50;76.93;100231.16;1775190;80;20983;-84
2021/06/11 03:56:10;;;;;;;7.80;6.80;;;;;;;19.61;76.44;100229.55;1775206;80;21754;-84
2021/06/11 03:58:42;;;;;;;6.80;6.15;;;;;;;19.75;75.87;100226.79;1775243;80;21038;-86
2021/06/11 04:01:17;;;;;;;11.57;8.08;;;;;;;19.85;75.56;100225.31;1775412;80;20916;-85
2021/06/11 04:03:44;;;;;;;7.55;6.85;;;;;;;19.95;75.27;100216.70;1775119;80;20853;-86
2021/06/11 04:06:15;;;;;;;8.10;6.37;;;;;;;20.16;74.66;100212.23;1776026;80;21341;-84
2021/06/11 04:08:41;;;;;;;9.38;6.65;;;;;;;20.47;73.86;100221.74;1775695;80;21112;-82
2021/06/11 04:11:18;;;;;;;8.15;6.95;;;;;;;20.93;72.73;100222.59;1775207;80;21007;-81
2021/06/11 04:13:51;;;;;;;8.35;6.62;;;;;;;21.42;71.11;100221.16;1775641;80;20924;-82
2021/06/11 04:16:28;;;;;;;8.80;6.40;;;;;;;21.96;69.32;100217.72;1775279;80;21503;-83
2021/06/11 04:18:55;;;;;;;9.68;7.47;;;;;;;22.43;67.71;100223.94;1764266;80;20916;-81
2021/06/11 04:21:23;;;;;;;7.87;6.87;;;;;;;22.87;66.19;100225.39;1775423;80;21810;-80
2021/06/11 04:23:52;;;;;;;9.60;6.78;;;;;;;23.26;64.90;100214.99;1775189;80;21489;-83
2021/06/11 04:26:22;;;;;;;7.42;6.08;;;;;;;23.66;63.65;100218.70;1775046;80;21440;-83
2021/06/11 04:28:49;;;;;;;12.53;6.10;;;;;;;24.05;62.71;100214.83;1775746;80;21006;-83
2021/06/11 04:31:16;;;;;;;13.30;6.83;;;;;;;24.36;61.62;100214.00;1753621;80;21062;-83
2021/06/11 04:33:45;;;;;;;12.90;7.17;;;;;;;24.67;60.60;100218.22;1775315;80;21168;-83
2021/06/11 04:36:13;;;;;;;7.35;6.65;;;;;;;25.01;59.54;100208.06;1775050;80;21342;-82
2021/06/11 04:39:07;;;;;;;8.48;7.37;;;;;;;25.37;58.46;100213.77;1778746;80;20916;-78
2021/06/11 04:41:34;;;;;;;8.85;7.33;;;;;;;25.54;57.20;100218.26;1775410;80;20947;-77
2021/06/11 04:44:03;;;;;;;10.43;7.30;;;;;;;25.61;56.14;100219.63;1775385;80;20825;-80
2021/06/11 04:46:30;;;;;;;9.05;7.92;;;;;;;25.58;56.14;100214.16;1775277;80;21147;-80
2021/06/11 04:48:57;;;;;;;11.45;8.48;;;;;;;25.58;56.47;100217.36;1775389;80;20881;-77
2021/06/11 04:51:24;;;;;;;17.02;11.40;;;;;;;25.73;56.44;100214.53;1775439;80;20889;-80
2021/06/11 04:53:51;;;;;;;17.42;11.28;;;;;;;25.95;55.97;100218.77;1775323;80;20905;-81
2021/06/11 04:56:17;;;;;;;14.87;10.30;;;;;;;26.22;55.60;100219.64;1775215;80;21418;-78
2021/06/11 04:58:47;;;;;;;16.07;9.13;;;;;;;26.53;54.91;100215.53;1775222;80;21199;-75
2021/06/11 05:01:13;;;;;;;13.40;9.58;;;;;;;26.82;53.80;100221.03;1775182;80;20845;-76
2021/06/11 05:03:40;;;;;;;16.73;9.10;;;;;;;27.13;52.73;100224.10;1775322;80;20972;-77
2021/06/11 05:06:07;;;;;;;12.93;9.28;;;;;;;27.42;51.93;100212.03;1775293;80;21413;-75
2021/06/11 05:08:34;;;;;;;11.95;8.83;;;;;;;27.72;51.02;100214.17;1775511;80;20888;-74
2021/06/11 05:11:02;;;;;;;16.57;11.65;;;;;;;28.01;50.60;100216.31;1775188;80;21988;-72
2021/06/11 05:13:31;;;;;;;15.48;11.50;;;;;;;28.19;48.97;100214.27;1775286;80;21334;-74
2021/06/11 05:15:58;;;;;;;15.83;10.55;;;;;;;28.23;48.45;100211.94;1775326;80;21007;-75
2021/06/11 05:18:29;;;;;;;12.40;10.08;;;;;;;28.29;48.55;100219.16;1775472;80;20873;-74
2021/06/11 05:20:57;;;;;;;13.45;10.58;;;;;;;28.38;48.78;100217.84;1775324;80;20928;-74
2021/06/11 05:23:23;;;;;;;19.23;12.95;;;;;;;28.50;48.23;100216.63;1775597;80;21098;-76
2021/06/11 05:25:50;;;;;;;18.23;13.95;;;;;;;28.65;48.08;100214.95;1775251;80;21452;-77
2021/06/11 05:28:17;;;;;;;19.92;16.42;;;;;;;28.85;48.00;100217.48;1775581;80;21474;-75
2021/06/11 05:30:44;;;;;;;17.75;10.85;;;;;;;29.01;46.89;100215.54;1775271;80;20964;-76
2021/06/11 05:33:12;;;;;;;14.35;9.68;;;;;;;29.26;46.30;100219.58;1775338;80;20897;-75
2021/06/11 05:35:38;;;;;;;12.07;9.20;;;;;;;29.51;45.79;100218.67;1775307;80;21769;-76
2021/06/11 05:38:06;;;;;;;13.38;10.50;;;;;;;29.72;45.14;100223.61;1782268;80;20876;-76
2021/06/11 05:40:33;;;;;;;12.73;10.38;;;;;;;29.96;44.28;100227.23;1783548;80;20884;-76
2021/06/11 05:43:00;;;;;;;12.68;10.63;;;;;;;30.16;43.78;100219.37;1783711;80;21493;-76
2021/06/11 05:45:28;;;;;;;18.90;12.95;;;;;;;30.18;43.73;100216.44;1783594;80;20892;-75
2021/06/11 05:48:00;;;;;;;16.52;11.63;;;;;;;30.12;44.38;100218.17;1783489;80;21163;-76
2021/06/11 05:50:27;;;;;;;19.07;12.65;;;;;;;30.05;44.09;100225.56;1783450;80;20923;-75
2021/06/11 05:52:55;;;;;;;11.70;9.40;;;;;;;30.13;43.77;100217.95;1783746;80;20900;-76
2021/06/11 05:55:23;;;;;;;13.10;9.08;;;;;;;30.40;43.62;100220.28;1783483;80;21437;-76
2021/06/11 05:57:50;;;;;;;10.30;7.33;;;;;;;30.72;42.82;100226.18;1783562;80;20967;-76
2021/06/11 06:00:17;;;;;;;8.63;6.78;;;;;;;31.04;43.12;100230.44;1783746;80;21798;-78
2021/06/11 06:02:44;;;;;;;6.42;4.80;;;;;;;31.24;42.42;100238.20;1783396;80;21341;-75
2021/06/11 06:05:12;;;;;;;8.80;4.50;;;;;;;31.38;41.19;100236.35;1783717;80;20916;-76
2021/06/11 06:07:39;;;;;;;4.45;3.45;;;;;;;31.61;40.94;100241.45;1783430;80;21425;-77
2021/06/11 06:10:07;;;;;;;3.35;2.70;;;;;;;31.80;40.23;100236.14;1783810;80;21409;-76
2021/06/11 06:12:34;;;;;;;5.50;2.45;;;;;;;31.90;39.60;100238.21;1783579;80;21956;-76
2021/06/11 06:15:01;;;;;;;3.55;3.25;;;;;;;31.93;39.22;100234.22;1783405;80;20931;-75
2021/06/11 06:17:34;;;;;;;3.33;2.92;;;;;;;32.03;38.86;100233.59;1783456;80;20924;-77
2021/06/11 06:19:59;;;;;;;8.53;2.92;;;;;;;32.19;38.77;100233.64;1783496;80;21002;-77
2021/06/11 06:22:26;;;;;;;5.10;4.12;;;;;;;32.37;38.47;100228.52;1783532;80;20840;-76
2021/06/11 06:24:52;;;;;;;5.08;3.58;;;;;;;32.59;38.27;100227.79;1783552;80;21816;-77
2021/06/11 06:27:19;;;;;;;9.55;3.85;;;;;;;32.84;38.04;100227.37;1783665;80;20926;-77
2021/06/11 06:29:46;;;;;;;6.37;3.00;;;;;;;33.08;37.37;100223.91;1783437;80;20877;-77
2021/06/11 06:32:13;;;;;;;3.40;3.10;;;;;;;33.30;36.92;100224.48;1783690;80;20959;-76
2021/06/11 06:34:39;;;;;;;4.28;3.02;;;;;;;33.46;36.93;100227.66;1783554;80;20935;-75
2021/06/11 06:37:10;;;;;;;8.00;2.83;;;;;;;33.61;36.15;100220.27;1783323;80;21550;-75
2021/06/11 06:39:35;;;;;;;3.40;3.10;;;;;;;33.77;37.10;100222.09;1783308;80;20932;-75
2021/06/11 06:42:05;;;;;;;4.62;2.70;;;;;;;33.91;36.31;100220.33;1783431;80;21401;-76
2021/06/11 06:44:33;;;;;;;4.42;2.65;;;;;;;34.06;35.38;100225.89;1783410;80;20920;-76
2021/06/11 06:47:00;;;;;;;3.05;2.10;;;;;;;34.24;35.15;100222.84;1783763;80;21061;-76
2021/06/11 06:49:27;;;;;;;3.52;1.77;;;;;;;34.39;34.00;100224.86;1783627;80;21941;-76
2021/06/11 06:51:54;;;;;;;2.25;2.00;;;;;;;34.22;34.44;100229.09;1783649;80;20869;-76
2021/06/11 06:54:20;;;;;;;3.10;1.98;;;;;;;34.07;34.90;100227.55;1783419;80;20976;-75
2021/06/11 06:56:47;;;;;;;7.00;5.47;;;;;;;34.01;34.59;100221.77;1783784;80;20888;-75
2021/06/11 06:59:14;;;;;;;2.27;2.02;;;;;;;34.06;34.34;100224.53;1783543;80;20884;-77
2021/06/11 07:01:41;;;;;;;2.58;2.37;;;;;;;34.21;34.09;100226.61;1783401;80;21144;-77
2021/06/11 07:04:08;;;;;;;3.15;2.62;;;;;;;34.41;34.22;100220.52;1783772;80;20865;-77
2021/06/11 07:06:35;;;;;;;3.52;2.02;;;;;;;34.31;34.03;100232.16;1783395;80;21306;-77
2021/06/11 07:09:04;;;;;;;2.47;2.27;;;;;;;34.22;34.24;100229.09;1783339;80;20947;-77
2021/06/11 07:11:32;;;;;;;2.05;1.90;;;;;;;34.26;34.14;100226.65;1783712;80;20936;-77
2021/06/11 07:14:00;;;;;;;2.42;2.25;;;;;;;34.44;33.59;100226.80;1783428;80;21542;-76
2021/06/11 07:16:27;;;;;;;3.20;2.10;;;;;;;34.65;32.85;100219.64;1783420;80;21438;-77
2021/06/11 07:18:54;;;;;;;3.95;3.20;;;;;;;34.46;33.80;100223.27;1783512;80;20923;-78
2021/06/11 07:21:20;;;;;;;3.90;2.72;;;;;;;34.23;34.00;100219.83;1783661;80;20971;-76
2021/06/11 07:23:48;;;;;;;2.70;2.33;;;;;;;33.84;34.50;100218.62;1783425;80;20869;-77
2021/06/11 07:26:15;;;;;;;2.58;2.37;;;;;;;33.42;34.87;100217.84;1783675;80;21135;-78
2021/06/11 07:28:41;;;;;;;3.08;2.67;;;;;;;32.99;35.60;100219.42;1783741;80;20905;-77
2021/06/11 07:31:08;;;;;;;4.80;3.20;;;;;;;32.48;37.10;100211.83;1783412;80;21253;-77
2021/06/11 07:33:35;;;;;;;4.30;3.70;;;;;;;31.89;38.27;100219.48;1783629;80;21413;-77
2021/06/11 07:36:02;;;;;;;7.65;4.20;;;;;;;31.33;39.37;100215.11;1783847;80;20975;-78
2021/06/11 07:38:29;;;;;;;4.03;3.72;;;;;;;30.83;40.43;100214.25;1777095;80;21538;-77
2021/06/11 07:40:56;;;;;;;9.13;4.33;;;;;;;30.41;41.49;100218.39;1775407;80;20876;-78
2021/06/11 07:43:24;;;;;;;6.08;4.20;;;;;;;30.01;42.30;100213.02;1775139;80;20838;-78
2021/06/11 07:45:51;;;;;;;5.22;3.98;;;;;;;29.71;42.75;100213.86;1775508;80;20996;-76
2021/06/11 07:48:18;;;;;;;4.67;3.10;;;;;;;29.38;43.59;100215.59;1775134;80;20908;-76
2021/06/11 07:52:24;;;;;;;4.17;3.47;;;;;;;29.04;44.90;100212.94;1798689;79;23262;-76
2021/06/11 07:54:51;;;;;;;8.10;4.10;;;;;;;28.78;45.16;100207.27;1758695;81;21322;-78
2021/06/11 07:57:18;;;;;;;5.22;3.83;;;;;;;28.53;45.51;100201.38;1758335;80;21530;-77
2021/06/11 07:59:45;;;;;;;6.03;3.55;;;;;;;28.30;46.18;100201.42;1758215;81;20956;-77
2021/06/11 08:02:14;;;;;;;6.35;3.47;;;;;;;28.00;46.75;100196.34;1758432;81;21028;-77
2021/06/11 08:04:41;;;;;;;3.77;3.22;;;;;;;27.73;46.76;100199.67;1758648;81;20932;-77
2021/06/11 08:07:07;;;;;;;8.13;3.83;;;;;;;27.51;47.52;100201.32;1758331;81;20986;-77
2021/06/11 08:09:35;;;;;;;7.87;3.40;;;;;;;27.29;48.32;100198.91;1758351;81;21560;-76
2021/06/11 08:12:03;;;;;;;5.92;3.70;;;;;;;27.03;49.41;100199.77;1758182;80;20876;-77
2021/06/11 08:14:30;;;;;;;4.35;3.27;;;;;;;26.75;49.37;100208.11;1758246;81;20990;-77
2021/06/11 08:16:57;;;;;;;7.97;4.10;;;;;;;26.47;50.54;100202.38;1758160;80;20904;-77
2021/06/11 08:19:24;;;;;;;3.62;2.98;;;;;;;26.24;51.03;100206.82;1725176;83;20856;-76
2021/06/11 08:21:51;;;;;;;4.33;3.37;;;;;;;25.99;51.28;100203.89;1724748;83;21129;-77
2021/06/11 08:24:18;;;;;;;6.20;3.37;;;;;;;25.77;52.33;100209.90;1724720;83;21507;-77
2021/06/11 08:26:45;;;;;;;5.05;4.28;;;;;;;25.57;53.27;100203.63;1724733;81;20892;-78
2021/06/11 08:29:12;;;;;;;7.72;5.72;;;;;;;25.41;54.29;100202.94;1724961;82;21499;-78
2021/06/11 08:31:40;;;;;;;5.67;4.92;;;;;;;25.30;55.26;100206.69;1724726;83;20923;-77
2021/06/11 08:34:07;;;;;;;14.15;12.65;;;;;;;25.19;55.61;100210.75;1720431;83;21516;-76
2021/06/11 08:36:33;;;;;;;18.30;15.45;;;;;;;25.14;55.33;100211.31;1711203;83;21002;-77
2021/06/11 08:39:00;;;;;;;30.95;21.93;;;;;;;25.12;56.44;100215.22;1711543;83;20928;-77
2021/06/11 08:41:27;;;;;;;29.80;23.87;;;;;;;25.09;56.86;100216.97;1711207;83;20917;-77
2021/06/11 08:43:54;;;;;;;36.73;26.52;;;;;;;25.06;57.08;100211.98;1685415;83;20901;-77
2021/06/11 08:46:21;;;;;;;35.15;25.37;;;;;;;25.03;56.85;100209.19;1711216;84;21222;-77
2021/06/11 08:48:48;;;;;;;37.95;29.27;;;;;;;24.95;57.52;100208.02;1711249;83;20977;-77
2021/06/11 08:51:14;;;;;;;45.05;33.30;;;;;;;24.88;57.92;100199.07;1719111;82;21390;-77
2021/06/11 08:53:42;;;;;;;41.25;33.13;;;;;;;24.80;58.13;100198.20;1714901;83;20913;-77
2021/06/11 08:56:09;;;;;;;42.05;32.00;;;;;;;24.77;58.82;100186.53;1714963;83;20945;-77
2021/06/11 08:58:39;;;;;;;37.80;30.05;;;;;;;24.66;59.03;100191.09;1714742;83;21823;-77
2021/06/11 09:01:07;;;;;;;34.80;24.92;;;;;;;24.51;59.34;100187.16;1714895;83;21398;-78
2021/06/11 09:03:45;;;;;;;36.85;27.05;;;;;;;24.39;59.98;100199.41;1714302;83;20936;-77
2021/06/11 09:06:13;;;;;;;33.23;24.70;;;;;;;24.25;60.35;100197.09;1714461;83;20913;-77
2021/06/11 09:08:43;;;;;;;30.55;23.62;;;;;;;24.13;60.95;100202.66;1714442;83;20952;-78
2021/06/11 09:11:18;;;;;;;28.38;22.50;;;;;;;24.06;62.05;100193.73;1712754;83;21045;-78
2021/06/11 09:13:49;;;;;;;29.85;22.55;;;;;;;24.00;62.34;100197.99;1714203;83;20940;-78
2021/06/11 09:16:24;;;;;;;31.50;23.55;;;;;;;23.88;62.66;100201.69;1714471;83;20881;-77
2021/06/11 09:19:02;;;;;;;29.40;20.23;;;;;;;23.81;63.21;100199.94;1714392;83;20885;-77
2021/06/11 09:21:46;;;;;;;29.57;20.08;;;;;;;23.70;63.66;100199.87;1714185;83;20948;-77
2021/06/11 09:24:23;;;;;;;;;;;;;;;23.57;63.82;100200.06;1716568;83;21220;-78
2021/06/11 09:27:07;;;;;;;24.57;17.65;;;;;;;23.42;64.06;100197.91;1714610;83;20078;-79
2021/06/11 09:29:44;;;;;;;21.23;15.65;;;;;;;23.30;64.26;100205.59;1714111;83;20904;-78
2021/06/11 09:32:21;;;;;;;14.60;9.58;;;;;;;23.17;64.26;100218.27;1714287;83;21000;-77
2021/06/11 09:34:51;;;;;;;28.52;17.80;;;;;;;23.08;60.88;100231.41;1714309;83;20987;-78
2021/06/11 09:37:20;;;;;;;24.05;12.55;;;;;;;23.02;63.98;100234.81;1714384;83;21182;-78
2021/06/11 09:39:56;;;;;;;24.40;13.85;;;;;;;22.97;63.91;100238.52;1714226;83;20936;-78
2021/06/11 09:42:34;;;;;;;14.73;8.23;;;;;;;22.86;64.10;100251.81;1714421;83;20936;-77
2021/06/11 09:45:10;;;;;;;12.25;7.20;;;;;;;22.69;63.72;100256.98;1714176;83;20956;-76
2021/06/11 09:47:47;;;;;;;18.67;8.40;;;;;;;22.47;63.43;100257.31;1714480;83;20897;-77
2021/06/11 09:50:38;;;;;;;14.47;7.58;;;;;;;22.22;63.47;100258.83;1714225;83;21727;-77
2021/06/11 09:53:09;;;;;;;12.55;6.20;;;;;;;21.98;63.39;100243.74;1708512;83;20933;-76
2021/06/11 09:55:48;;;;;;;10.48;6.75;;;;;;;21.72;64.26;100234.22;1708571;83;20897;-76
2021/06/11 09:58:19;;;;;;;12.00;7.83;;;;;;;21.47;65.31;100225.46;1708838;83;20957;-77
2021/06/11 10:00:54;;;;;;;12.05;7.22;;;;;;;21.23;66.50;100220.18;1708693;84;21482;-77
2021/06/11 10:03:34;;;;;;;9.95;4.97;;;;;;;21.07;66.79;100223.22;1708851;84;21890;-77
2021/06/11 10:06:03;;;;;;;6.65;4.45;;;;;;;20.92;66.51;100224.94;1708416;83;20961;-77
2021/06/11 10:08:30;;;;;;;7.47;4.58;;;;;;;20.82;66.12;100233.60;1708483;84;21473;-75
2021/06/11 10:10:58;;;;;;;12.82;7.30;;;;;;;20.71;65.92;100229.44;1708842;84;20913;-74
2021/06/11 10:13:25;;;;;;;6.72;4.70;;;;;;;20.57;65.83;100216.81;1708557;84;21027;-77
2021/06/11 10:15:58;;;;;;;5.20;3.67;;;;;;;20.44;65.03;100214.09;1708714;84;21159;-76
2021/06/11 10:18:25;;;;;;;3.40;2.77;;;;;;;20.35;65.15;100204.95;1708339;84;20885;-76
2021/06/11 10:20:54;;;;;;;5.33;3.12;;;;;;;20.25;65.45;100207.28;1708735;83;20956;-76
2021/06/11 10:23:23;;;;;;;8.58;3.58;;;;;;;20.17;66.37;100213.09;1708556;84;21430;-77
2021/06/11 10:25:56;;;;;;;8.73;3.90;;;;;;;20.09;67.58;100209.91;1708751;84;21417;-77
2021/06/11 10:28:43;;;;;;;6.58;3.65;;;;;;;19.99;68.64;100215.38;1708529;84;21426;-76
2021/06/11 10:31:12;;;;;;;6.30;2.87;;;;;;;19.94;68.05;100219.52;1708599;83;20913;-76
2021/06/11 10:33:50;;;;;;;5.95;2.50;;;;;;;19.94;68.45;100227.00;1708472;83;20995;-76
2021/06/11 10:36:33;;;;;;;3.83;2.60;;;;;;;19.96;66.88;100231.66;1708671;83;21032;-76
2021/06/11 10:39:03;;;;;;;4.35;2.77;;;;;;;20.02;66.80;100241.67;1708544;83;20996;-77
2021/06/11 10:41:54;;;;;;;3.50;2.85;;;;;;;20.16;67.48;100252.17;1708794;83;21118;-76
2021/06/11 10:44:46;;;;;;;3.15;2.60;;;;;;;20.27;69.00;100250.52;1708500;84;21489;-76
2021/06/11 10:47:21;;;;;;;4.53;3.27;;;;;;;20.40;68.22;100243.39;1708754;84;20944;-76
2021/06/11 10:50:03;;;;;;;4.28;2.75;;;;;;;20.48;69.06;100235.41;1708553;84;20972;-77
2021/06/11 10:52:52;;;;;;;4.20;3.50;;;;;;;20.56;69.93;100227.91;1711735;83;21414;-77
2021/06/11 10:55:36;;;;;;;6.20;3.20;;;;;;;20.66;70.55;100226.46;1714057;83;21106;-76
2021/06/11 10:58:14;;;;;;;7.55;3.05;;;;;;;20.83;70.47;100208.12;1714517;83;21410;-76
2021/06/11 11:00:43;;;;;;;8.48;3.75;;;;;;;21.10;70.30;100197.56;1715646;83;20897;-77
2021/06/11 11:03:25;;;;;;;6.08;3.15;;;;;;;21.56;70.79;100198.75;1716399;83;20921;-77
2021/06/11 11:05:52;;;;;;;2.95;2.30;;;;;;;22.10;70.56;100212.97;1716777;83;20893;-78
2021/06/11 11:08:20;;;;;;;4.10;2.65;;;;;;;22.67;69.62;100221.06;1716015;83;21114;-78
2021/06/11 11:10:52;;;;;;;2.90;2.20;;;;;;;23.04;68.04;100221.27;1714852;83;20885;-78
2021/06/11 11:13:21;;;;;;;6.75;2.60;;;;;;;23.34;66.83;100235.46;1716825;83;20928;-76
2021/06/11 11:15:50;;;;;;;4.80;3.60;;;;;;;23.53;66.35;100242.11;1714224;83;21501;-77
2021/06/11 11:18:23;;;;;;;2.60;2.40;;;;;;;23.68;66.09;100235.38;1714292;83;21370;-79
2021/06/11 11:20:48;;;;;;;6.40;2.95;;;;;;;23.76;65.63;100234.80;1714018;82;21164;-78
2021/06/11 11:23:18;;;;;;;4.80;2.83;;;;;;;23.83;64.49;100249.61;1711294;83;21000;-79
2021/06/11 11:25:44;;;;;;;3.67;3.33;;;;;;;23.82;64.15;100256.52;1714002;83;20928;-77
2021/06/11 11:28:13;;;;;;;3.30;2.90;;;;;;;23.79;64.15;100261.73;1714193;83;21033;-76
2021/06/11 11:30:41;;;;;;;4.05;3.37;;;;;;;23.80;64.10;100264.72;1714028;83;20912;-74
2021/06/11 11:33:09;;;;;;;5.45;3.40;;;;;;;23.78;64.24;100270.77;1714056;83;21155;-74
2021/06/11 11:35:38;;;;;;;3.75;3.10;;;;;;;23.74;63.73;100276.97;1713967;83;20957;-74